Time;durP1;ratioP1;P1;durP2;ratioP2;P2;SDS_P1;SDS_P2;PMS_P1;PMS_P2;Temp;Humidity;BMP_temperature;BMP_pressure;BME280_temperature;BME280_humidity;BME280_pressure;Samples;Min_cycle;Max_cycle;Signal;HPM_P1;HPM_P2
2022/05/27 00:03:03;;;;;;;3.80;1.90;;;24.70;56.30;;;;;;217146;1290;22586;-49
2022/05/27 00:08:09;;;;;;;2.90;1.80;;;24.70;56.80;;;;;;217137;1290;22589;-49
2022/05/27 00:13:12;;;;;;;6.90;1.80;;;24.60;56.70;;;;;;217142;1290;25267;-50
2022/05/27 00:18:17;;;;;;;3.20;2.00;;;24.60;56.80;;;;;;216870;1290;24335;-53
2022/05/27 00:23:21;;;;;;;4.30;1.90;;;24.60;56.80;;;;;;217023;1289;22591;-50
2022/05/27 00:28:25;;;;;;;4.40;1.90;;;24.50;56.80;;;;;;216635;1290;22559;-53
2022/05/27 00:33:28;;;;;;;3.90;1.60;;;24.50;56.80;;;;;;216672;1290;25389;-51
2022/05/27 00:38:32;;;;;;;2.50;1.50;;;24.50;57.00;;;;;;216965;1288;23107;-49
2022/05/27 00:43:36;;;;;;;5.30;1.80;;;24.50;57.00;;;;;;217129;1290;25472;-50
2022/05/27 00:48:42;;;;;;;4.00;1.70;;;24.50;57.20;;;;;;216611;1290;22573;-50
2022/05/27 00:53:55;;;;;;;2.90;1.80;;;24.50;57.10;;;;;;220582;1291;23071;-50
2022/05/27 00:59:04;;;;;;;2.90;1.80;;;24.50;57.10;;;;;;216685;1290;24308;-48
2022/05/27 01:04:09;;;;;;;2.50;1.40;;;24.50;57.10;;;;;;216878;1291;26560;-50
2022/05/27 01:09:13;;;;;;;3.20;1.50;;;24.50;57.50;;;;;;217674;1290;25341;-48
2022/05/27 01:14:38;;;;;;;2.80;1.50;;;24.50;57.10;;;;;;218379;1289;22558;-50
2022/05/27 01:20:18;;;;;;;3.80;1.40;;;24.50;57.20;;;;;;216860;1290;23022;-49
2022/05/27 01:25:59;;;;;;;3.60;1.60;;;24.50;57.20;;;;;;216867;1290;22735;-48
2022/05/27 01:31:15;;;;;;;2.50;1.50;;;24.40;57.20;;;;;;216845;1290;22558;-48
2022/05/27 01:36:34;;;;;;;2.20;1.30;;;24.40;57.30;;;;;;217059;1290;26660;-48
2022/05/27 01:42:25;;;;;;;3.20;1.40;;;24.40;56.80;;;;;;216570;1290;24417;-48
2022/05/27 01:48:17;;;;;;;2.80;1.70;;;24.30;57.30;;;;;;216157;1290;25466;-51
2022/05/27 01:54:13;;;;;;;2.80;1.30;;;24.30;57.40;;;;;;216226;1290;24269;-47
2022/05/27 01:59:40;;;;;;;3.10;1.60;;;24.30;57.30;;;;;;215359;1294;22579;-49
2022/05/27 02:04:51;;;;;;;2.70;1.50;;;24.30;57.30;;;;;;216595;1290;24024;-46
2022/05/27 02:10:01;;;;;;;2.50;1.70;;;24.30;57.70;;;;;;217114;1290;22547;-51
2022/05/27 02:15:13;;;;;;;5.70;2.20;;;24.30;57.50;;;;;;216485;1290;23992;-49
2022/05/27 02:20:25;;;;;;;2.80;1.60;;;24.30;57.60;;;;;;216154;1290;22647;-51
2022/05/27 02:25:33;;;;;;;2.90;1.30;;;24.30;57.80;;;;;;216709;1290;25206;-47
2022/05/27 02:30:42;;;;;;;2.20;1.50;;;24.20;57.50;;;;;;216228;1290;22840;-48
2022/05/27 02:35:48;;;;;;;2.10;1.30;;;24.20;57.80;;;;;;216652;1290;22551;-49
2022/05/27 02:41:13;;;;;;;2.30;1.50;;;24.20;57.70;;;;;;216108;1293;25277;-48
2022/05/27 02:46:45;;;;;;;2.20;1.40;;;24.20;57.60;;;;;;216201;1290;22592;-51
2022/05/27 02:52:04;;;;;;;3.10;1.40;;;24.20;58.00;;;;;;216836;1290;24452;-50
2022/05/27 02:57:27;;;;;;;3.00;1.30;;;24.20;58.10;;;;;;216914;1290;24407;-47
2022/05/27 03:02:31;;;;;;;2.30;1.40;;;24.20;58.20;;;;;;216857;1291;22593;-48
2022/05/27 03:07:56;;;;;;;4.00;1.40;;;24.20;58.00;;;;;;216689;1290;22579;-49
2022/05/27 03:13:13;;;;;;;2.10;1.40;;;24.20;58.00;;;;;;216978;1290;24449;-48
2022/05/27 03:18:54;;;;;;;2.40;1.50;;;24.20;57.80;;;;;;216460;1290;25334;-47
2022/05/27 03:24:26;;;;;;;4.30;1.50;;;24.20;57.90;;;;;;216673;1291;24399;-50
2022/05/27 03:29:38;;;;;;;3.00;1.50;;;24.10;58.10;;;;;;216946;1290;25407;-49
2022/05/27 03:35:04;;;;;;;2.20;1.40;;;24.20;58.20;;;;;;216805;1291;25273;-49
2022/05/27 03:40:16;;;;;;;2.60;1.10;;;24.10;58.00;;;;;;217122;1290;24400;-48
2022/05/27 03:45:22;;;;;;;2.60;1.40;;;24.20;58.10;;;;;;216776;1290;24269;-51
2022/05/27 03:50:26;;;;;;;3.40;1.30;;;24.10;58.20;;;;;;216981;1290;24247;-47
2022/05/27 03:55:30;;;;;;;2.50;1.40;;;24.10;57.90;;;;;;216813;1290;24436;-51
2022/05/27 04:00:34;;;;;;;2.10;1.20;;;24.10;58.10;;;;;;216840;1291;24536;-50
2022/05/27 04:05:39;;;;;;;2.00;1.40;;;24.10;58.10;;;;;;216836;1291;22710;-51
2022/05/27 04:10:44;;;;;;;2.90;1.50;;;24.10;58.10;;;;;;217025;1289;22777;-50
2022/05/27 04:15:50;;;;;;;3.20;1.40;;;24.10;58.20;;;;;;217291;1291;22593;-48
2022/05/27 04:21:00;;;;;;;4.30;1.80;;;24.10;58.10;;;;;;217208;1291;25267;-47
2022/05/27 04:26:08;;;;;;;3.00;1.30;;;24.10;58.20;;;;;;217144;1291;24281;-50
2022/05/27 04:31:12;;;;;;;6.00;2.00;;;24.10;58.30;;;;;;216811;1291;22732;-50
2022/05/27 04:36:16;;;;;;;5.20;1.80;;;24.10;58.40;;;;;;217259;1291;24468;-48
2022/05/27 04:41:23;;;;;;;2.90;1.30;;;24.10;58.40;;;;;;217178;1290;22579;-50
2022/05/27 04:46:26;;;;;;;2.00;1.20;;;24.10;58.40;;;;;;216728;1290;25343;-45
2022/05/27 04:51:30;;;;;;;2.70;1.40;;;24.10;58.40;;;;;;216716;1290;22556;-48
2022/05/27 04:56:34;;;;;;;2.50;1.10;;;24.10;58.40;;;;;;217103;1291;25279;-51
2022/05/27 05:01:38;;;;;;;4.30;2.00;;;24.00;58.40;;;;;;216820;1290;25631;-52
2022/05/27 05:06:43;;;;;;;2.20;1.40;;;24.10;58.80;;;;;;216887;1288;22573;-48
2022/05/27 05:11:47;;;;;;;2.40;1.30;;;24.10;58.60;;;;;;216604;1290;24287;-52
2022/05/27 05:16:51;;;;;;;2.00;1.30;;;24.00;58.50;;;;;;216904;1290;23089;-49
2022/05/27 05:21:55;;;;;;;5.10;2.10;;;24.10;58.50;;;;;;216777;1290;25479;-54
2022/05/27 05:27:05;;;;;;;3.60;1.50;;;24.10;58.60;;;;;;216752;1290;22599;-49
2022/05/27 05:32:09;;;;;;;6.10;1.80;;;24.10;58.60;;;;;;216765;1290;24272;-51
2022/05/27 05:37:13;;;;;;;5.30;1.60;;;24.10;58.80;;;;;;216727;1290;24361;-51
2022/05/27 05:42:23;;;;;;;5.10;1.50;;;24.10;59.10;;;;;;217473;1290;22600;-50
2022/05/27 05:47:27;;;;;;;7.10;2.10;;;24.10;59.30;;;;;;217177;1290;22548;-51
2022/05/27 05:52:31;;;;;;;5.90;1.50;;;24.10;60.00;;;;;;216989;1290;24269;-49
2022/05/27 05:57:41;;;;;;;4.00;1.50;;;24.10;60.40;;;;;;217061;1291;22554;-56
2022/05/27 06:02:50;;;;;;;4.60;1.50;;;24.10;60.30;;;;;;216971;1289;24474;-53
2022/05/27 06:07:59;;;;;;;5.60;1.40;;;24.10;60.40;;;;;;216949;1290;24473;-50
2022/05/27 06:13:06;;;;;;;7.90;1.40;;;24.10;60.00;;;;;;216721;1290;22584;-49
2022/05/27 06:18:12;;;;;;;6.10;1.60;;;24.10;60.10;;;;;;216561;1290;24111;-50
2022/05/27 06:23:16;;;;;;;6.90;1.70;;;24.10;59.70;;;;;;216937;1290;25268;-49
2022/05/27 06:39:11;;;;;;;7.80;2.00;;;24.10;59.10;;;;;;216552;1290;23038;-52
2022/05/27 06:44:15;;;;;;;9.20;2.10;;;24.10;58.80;;;;;;217121;1290;22735;-54
2022/05/27 06:49:23;;;;;;;9.10;1.90;;;24.10;58.40;;;;;;216864;1291;25359;-48
2022/05/27 06:54:34;;;;;;;10.90;2.00;;;24.00;56.70;;;;;;217047;1290;25381;-52
2022/05/27 06:59:39;;;;;;;9.70;1.70;;;24.00;57.30;;;;;;216808;1290;23031;-53
2022/05/27 07:04:50;;;;;;;9.60;1.70;;;23.90;56.80;;;;;;216964;1290;22608;-53
2022/05/27 07:09:58;;;;;;;14.00;2.00;;;24.00;56.90;;;;;;216984;1290;22600;-54
2022/05/27 07:15:10;;;;;;;6.20;1.60;;;24.00;57.10;;;;;;216275;1291;24328;-50
2022/05/27 07:20:14;;;;;;;5.80;1.90;;;23.90;57.00;;;;;;216355;1290;321787;-52
2022/05/27 07:25:17;;;;;;;6.30;1.90;;;23.90;57.70;;;;;;216738;1290;22874;-51
2022/05/27 07:30:21;;;;;;;6.70;1.60;;;24.00;57.10;;;;;;216809;1290;26803;-53
2022/05/27 07:35:25;;;;;;;8.80;2.00;;;24.00;57.40;;;;;;216873;1290;22723;-52
2022/05/27 07:40:30;;;;;;;10.00;2.10;;;23.90;57.00;;;;;;216558;1290;24412;-51
2022/05/27 07:45:40;;;;;;;7.20;2.10;;;24.00;57.10;;;;;;216328;1290;22720;-52
2022/05/27 07:50:44;;;;;;;10.40;1.80;;;23.90;57.00;;;;;;217177;1290;22592;-56
2022/05/27 07:55:48;;;;;;;3.10;1.20;;;23.90;57.10;;;;;;217038;1290;22764;-52
2022/05/27 08:00:52;;;;;;;5.00;1.60;;;23.90;57.10;;;;;;216944;1290;22573;-53
2022/05/27 08:05:57;;;;;;;4.60;2.00;;;23.90;57.10;;;;;;216595;1290;22566;-52
2022/05/27 08:11:02;;;;;;;5.50;1.50;;;23.90;57.20;;;;;;216640;1290;22585;-53
2022/05/27 08:16:06;;;;;;;7.00;1.80;;;23.90;57.20;;;;;;216428;1290;22579;-52
2022/05/27 08:21:11;;;;;;;4.30;1.60;;;23.90;57.30;;;;;;216427;1290;22560;-50
2022/05/27 08:26:15;;;;;;;4.50;1.80;;;23.90;57.70;;;;;;216411;1290;25275;-53
2022/05/27 08:31:20;;;;;;;4.40;1.50;;;23.80;57.20;;;;;;216789;1290;23506;-53
2022/05/27 08:41:57;;;;;;;7.30;1.80;;;23.80;57.00;;;;;;216803;1290;22627;-53
2022/05/27 08:47:12;;;;;;;5.90;1.70;;;23.80;57.30;;;;;;216696;1290;22557;-54
2022/05/27 08:52:31;;;;;;;7.10;1.90;;;23.80;57.10;;;;;;217167;1290;22580;-53
2022/05/27 09:03:12;;;;;;;3.60;1.50;;;23.80;57.60;;;;;;216305;1290;22652;-53
2022/05/27 09:08:21;;;;;;;7.00;1.70;;;23.80;57.30;;;;;;216441;1290;25397;-52
2022/05/27 09:13:35;;;;;;;2.30;1.20;;;23.80;57.30;;;;;;216114;1290;23057;-55
2022/05/27 09:18:44;;;;;;;3.20;1.30;;;23.70;57.20;;;;;;217194;1290;22538;-53
2022/05/27 09:24:14;;;;;;;2.90;1.40;;;23.80;57.30;;;;;;217178;1290;25869;-52
2022/05/27 09:29:53;;;;;;;4.50;1.70;;;23.80;57.30;;;;;;216992;1290;22555;-53
2022/05/27 09:35:02;;;;;;;7.40;2.10;;;23.80;57.30;;;;;;217028;1290;22580;-53
2022/05/27 09:40:40;;;;;;;5.00;1.70;;;23.70;57.30;;;;;;217042;1290;24322;-53
2022/05/27 09:45:51;;;;;;;3.40;1.30;;;23.80;57.30;;;;;;216075;1293;25497;-55
2022/05/27 09:51:00;;;;;;;;;;;23.80;57.30;;;;;;216876;1290;22551;-59
2022/05/27 09:56:08;;;;;;;4.10;1.70;;;23.70;57.30;;;;;;216333;1290;22572;-51
2022/05/27 10:01:29;;;;;;;4.70;2.00;;;23.70;57.20;;;;;;217109;1290;22564;-52
2022/05/27 10:06:35;;;;;;;4.50;1.80;;;23.70;57.30;;;;;;217177;1290;22811;-52
2022/05/27 10:11:58;;;;;;;4.90;1.60;;;23.70;57.10;;;;;;216999;1290;25513;-52
2022/05/27 10:17:13;;;;;;;3.80;1.40;;;23.70;57.20;;;;;;216941;1290;22649;-53
2022/05/27 10:22:28;;;;;;;4.60;1.60;;;23.70;57.20;;;;;;216945;1290;22588;-53
2022/05/27 10:27:51;;;;;;;3.40;1.30;;;23.70;57.20;;;;;;216674;1291;22590;-58
2022/05/27 10:33:16;;;;;;;4.60;1.60;;;23.70;57.20;;;;;;217268;1291;24262;-56
2022/05/27 10:38:32;;;;;;;2.90;1.20;;;23.70;57.10;;;;;;217062;1290;24507;-55
2022/05/27 10:44:07;;;;;;;4.90;1.30;;;23.70;57.10;;;;;;216844;1290;22878;-52
2022/05/27 10:49:46;;;;;;;2.60;1.40;;;23.70;57.10;;;;;;216698;1290;23054;-57
2022/05/27 10:55:09;;;;;;;2.50;1.20;;;23.70;57.10;;;;;;216493;1290;25340;-54
2022/05/27 11:06:00;;;;;;;4.10;1.50;;;23.70;57.10;;;;;;217160;1290;22594;-53
2022/05/27 11:11:43;;;;;;;2.60;1.10;;;23.70;57.00;;;;;;216999;1290;22580;-53
2022/05/27 11:17:09;;;;;;;1.70;1.10;;;23.70;57.00;;;;;;216886;1290;22595;-56
2022/05/27 11:22:19;;;;;;;2.70;1.50;;;23.70;57.00;;;;;;217050;1290;22612;-53
2022/05/27 11:27:36;;;;;;;1.90;1.00;;;23.70;57.10;;;;;;217143;1290;25406;-54
2022/05/27 11:33:14;;;;;;;2.30;1.10;;;23.70;57.40;;;;;;216886;1290;22569;-52
2022/05/27 11:38:58;;;;;;;2.20;1.20;;;23.70;57.00;;;;;;216708;1288;22569;-54
2022/05/27 11:44:12;;;;;;;4.70;1.50;;;23.60;57.00;;;;;;216460;1290;25341;-54
2022/05/27 11:49:31;;;;;;;3.80;1.30;;;23.60;57.00;;;;;;217136;1291;22673;-51
2022/05/27 11:54:48;;;;;;;1.70;1.10;;;23.70;57.10;;;;;;217115;1289;25337;-58
2022/05/27 12:00:16;;;;;;;2.00;1.10;;;23.70;57.00;;;;;;216972;1290;24435;-54
2022/05/27 12:05:32;;;;;;;2.90;1.20;;;23.60;57.00;;;;;;216981;1290;22617;-53
2022/05/27 12:10:50;;;;;;;2.70;0.90;;;23.70;57.00;;;;;;217035;1290;22587;-53
2022/05/27 12:16:06;;;;;;;4.20;1.30;;;23.60;56.90;;;;;;216514;1290;22651;-52
2022/05/27 12:21:17;;;;;;;2.10;1.10;;;23.70;57.00;;;;;;217022;1290;25453;-51
2022/05/27 12:26:29;;;;;;;3.00;1.40;;;23.60;56.80;;;;;;217067;1290;23035;-53
2022/05/27 12:31:35;;;;;;;2.70;1.10;;;23.60;56.80;;;;;;217132;1290;24522;-55
2022/05/27 12:36:42;;;;;;;1.80;1.00;;;23.60;56.80;;;;;;216746;1290;22585;-53
2022/05/27 12:41:46;;;;;;;4.30;1.50;;;23.60;56.80;;;;;;216984;1290;23208;-53
2022/05/27 12:46:57;;;;;;;1.90;1.10;;;23.70;56.80;;;;;;216820;1290;24334;-54
2022/05/27 12:52:03;;;;;;;1.90;0.90;;;23.60;56.80;;;;;;217045;1290;23958;-52
2022/05/27 13:03:03;;;;;;;3.40;1.20;;;23.60;56.70;;;;;;217097;1290;25498;-54
2022/05/27 13:08:21;;;;;;;2.20;1.20;;;23.60;57.00;;;;;;217051;1290;23036;-53
2022/05/27 13:13:32;;;;;;;4.50;1.70;;;23.60;56.60;;;;;;216696;1290;27451;-54
2022/05/27 13:18:51;;;;;;;2.40;1.10;;;23.70;56.30;;;;;;216942;1290;24305;-52
2022/05/27 13:24:01;;;;;;;2.40;1.30;;;23.70;56.40;;;;;;217208;1290;24190;-53
2022/05/27 13:29:33;;;;;;;2.60;1.30;;;23.70;56.90;;;;;;216668;1290;22791;-54
2022/05/27 13:34:42;;;;;;;1.70;0.90;;;23.70;56.60;;;;;;217044;1290;23956;-52
2022/05/27 13:39:55;;;;;;;2.00;1.00;;;23.60;56.80;;;;;;216736;1290;22559;-52
2022/05/27 13:45:13;;;;;;;1.60;1.00;;;23.70;56.60;;;;;;216890;1290;24786;-52
2022/05/27 13:50:38;;;;;;;2.60;1.10;;;23.70;56.50;;;;;;217006;1290;22569;-52
2022/05/27 13:55:43;;;;;;;2.30;0.90;;;23.70;56.40;;;;;;216823;1290;22576;-52
2022/05/27 14:01:08;;;;;;;1.60;1.10;;;23.70;56.40;;;;;;216040;1293;24474;-56
2022/05/27 14:06:28;;;;;;;2.10;1.20;;;23.70;56.30;;;;;;216592;1289;22591;-53
2022/05/27 14:11:39;;;;;;;2.30;1.20;;;23.70;56.30;;;;;;216172;1293;22574;-53
2022/05/27 14:16:55;;;;;;;2.20;1.20;;;23.70;56.30;;;;;;216275;1290;22867;-52
2022/05/27 14:22:42;;;;;;;1.70;0.90;;;23.70;56.30;;;;;;216938;1290;22828;-54
2022/05/27 14:27:59;;;;;;;3.00;1.40;;;23.70;56.30;;;;;;216627;1290;22703;-53
2022/05/27 14:33:27;;;;;;;3.20;1.40;;;23.80;56.30;;;;;;216690;1290;22736;-54
2022/05/27 14:38:35;;;;;;;1.30;0.80;;;23.70;56.30;;;;;;216913;1290;25663;-53
2022/05/27 14:43:44;;;;;;;1.60;1.00;;;23.70;56.50;;;;;;216957;1290;23210;-50
2022/05/27 14:48:55;;;;;;;4.50;1.20;;;23.70;56.20;;;;;;216657;1290;25548;-54
2022/05/27 14:54:30;;;;;;;3.10;1.30;;;23.70;56.50;;;;;;216675;1290;22685;-51
2022/05/27 14:59:35;;;;;;;1.50;1.00;;;23.70;56.50;;;;;;216845;1290;22611;-56
2022/05/27 15:04:54;;;;;;;6.00;1.30;;;23.70;56.20;;;;;;216712;1290;25484;-49
2022/05/27 15:10:03;;;;;;;;;;;23.80;56.60;;;;;;216858;1290;24259;-55
2022/05/27 15:15:10;;;;;;;4.90;1.70;;;23.90;56.70;;;;;;217159;1290;24303;-52
2022/05/27 15:20:20;;;;;;;10.60;1.60;;;23.90;56.50;;;;;;216825;1290;24552;-52
2022/05/27 15:25:44;;;;;;;5.60;1.20;;;23.90;56.70;;;;;;216915;1290;25346;-53
2022/05/27 15:36:04;;;;;;;8.10;1.50;;;23.90;56.10;;;;;;216573;1290;22658;-53
2022/05/27 15:41:11;;;;;;;6.90;1.50;;;23.90;56.70;;;;;;216414;1290;24265;-54
2022/05/27 15:46:21;;;;;;;4.20;1.30;;;23.90;57.00;;;;;;216397;1290;22608;-53
2022/05/27 15:51:27;;;;;;;4.20;1.60;;;23.90;57.00;;;;;;216258;1290;25407;-55
2022/05/27 15:56:41;;;;;;;4.50;1.40;;;23.90;57.30;;;;;;216952;1288;23765;-54
2022/05/27 16:01:46;;;;;;;8.20;2.10;;;23.90;58.60;;;;;;216575;1290;23123;-53
2022/05/27 16:06:52;;;;;;;6.50;2.40;;;23.90;59.90;;;;;;216874;1290;25534;-54
2022/05/27 16:11:58;;;;;;;5.20;2.20;;;23.90;62.10;;;;;;216634;1290;22563;-54
2022/05/27 16:22:33;;;;;;;10.90;3.20;;;24.00;63.50;;;;;;216505;1290;22739;-52
2022/05/27 16:27:45;;;;;;;7.40;2.60;;;24.00;63.80;;;;;;216586;1290;22504;-52
2022/05/27 16:33:09;;;;;;;4.10;2.30;;;24.00;64.30;;;;;;216644;1290;23231;-52
2022/05/27 16:38:15;;;;;;;9.50;2.40;;;24.00;65.10;;;;;;216833;1290;22722;-52
2022/05/27 16:43:24;;;;;;;13.50;3.00;;;24.10;66.20;;;;;;216967;1291;22595;-51
2022/05/27 16:48:28;;;;;;;12.60;3.20;;;24.10;66.20;;;;;;216499;1290;25283;-48
2022/05/27 16:53:48;;;;;;;7.70;2.00;;;24.10;65.50;;;;;;216473;1290;25544;-51
2022/05/27 16:58:55;;;;;;;5.60;2.10;;;24.10;65.00;;;;;;216783;1289;22608;-54
2022/05/27 17:03:59;;;;;;;11.70;3.00;;;24.10;64.60;;;;;;216453;1290;25403;-52
2022/05/27 17:09:14;;;;;;;10.40;2.30;;;24.10;64.30;;;;;;216739;1290;22734;-53
2022/05/27 17:14:18;;;;;;;12.80;3.40;;;24.00;63.50;;;;;;216694;1290;24704;-50
2022/05/27 17:19:22;;;;;;;9.10;2.20;;;24.10;62.60;;;;;;216835;1291;25358;-52
2022/05/27 17:24:28;;;;;;;6.90;2.30;;;24.10;61.80;;;;;;216611;1290;22591;-52
2022/05/27 17:29:31;;;;;;;7.50;2.40;;;24.10;62.80;;;;;;216016;1290;24344;-53
2022/05/27 17:34:39;;;;;;;9.10;2.20;;;24.00;62.00;;;;;;216823;1290;24328;-50
2022/05/27 17:39:45;;;;;;;7.70;2.20;;;24.00;61.60;;;;;;216707;1290;24336;-49
2022/05/27 17:44:54;;;;;;;6.20;1.90;;;24.10;61.50;;;;;;216728;1290;22700;-52
2022/05/27 17:55:20;;;;;;;7.00;1.80;;;24.00;60.50;;;;;;216252;1290;22590;-52
2022/05/27 18:00:25;;;;;;;5.70;1.80;;;24.10;60.10;;;;;;216740;1291;23852;-52
2022/05/27 18:05:31;;;;;;;6.10;2.00;;;24.00;60.40;;;;;;216044;1290;25265;-49
2022/05/27 18:10:36;;;;;;;5.30;1.90;;;24.00;59.80;;;;;;216992;1289;24440;-54
2022/05/27 18:15:41;;;;;;;7.90;2.30;;;23.90;59.60;;;;;;217060;1290;24471;-56
2022/05/27 18:20:46;;;;;;;7.10;1.80;;;23.90;59.10;;;;;;216664;1290;24410;-58
2022/05/27 18:25:52;;;;;;;8.00;2.00;;;23.90;59.10;;;;;;216735;1290;25583;-56
2022/05/27 18:30:57;;;;;;;7.10;2.10;;;23.90;58.30;;;;;;217170;1290;22580;-57
2022/05/27 18:36:11;;;;;;;9.10;2.40;;;23.90;58.40;;;;;;216196;1290;24336;-53
2022/05/27 18:41:16;;;;;;;7.00;2.10;;;23.90;58.30;;;;;;216322;1288;22748;-53
2022/05/27 18:46:24;;;;;;;13.00;2.00;;;23.90;58.30;;;;;;216491;1290;23707;-53
2022/05/27 18:51:33;;;;;;;5.00;1.80;;;23.90;58.10;;;;;;216581;1287;24277;-55
2022/05/27 18:56:40;;;;;;;4.80;2.00;;;23.90;58.80;;;;;;216782;1287;22604;-55
2022/05/27 19:01:46;;;;;;;4.70;1.60;;;23.90;59.70;;;;;;216472;1290;25612;-56
2022/05/27 19:06:51;;;;;;;7.00;1.70;;;23.90;60.40;;;;;;216588;1291;22857;-56
2022/05/27 19:11:56;;;;;;;8.80;1.90;;;23.90;61.10;;;;;;216539;1290;22541;-55
2022/05/27 19:17:01;;;;;;;11.00;2.10;;;23.90;62.20;;;;;;216917;1290;22696;-53
2022/05/27 19:22:09;;;;;;;13.80;3.10;;;23.90;61.10;;;;;;214693;1290;3097237;-54
2022/05/27 19:27:13;;;;;;;11.20;2.30;;;23.90;59.40;;;;;;216805;1290;24366;-55
2022/05/27 19:32:19;;;;;;;14.90;2.20;;;23.90;59.40;;;;;;216842;1290;26525;-55
2022/05/27 19:37:28;;;;;;;12.00;2.10;;;23.90;57.90;;;;;;216855;1290;22648;-55
2022/05/27 19:42:32;;;;;;;6.40;1.80;;;23.80;55.70;;;;;;216550;1290;24359;-53
2022/05/27 19:47:37;;;;;;;7.70;2.30;;;23.80;56.10;;;;;;216758;1290;23047;-56
2022/05/27 19:52:41;;;;;;;5.90;1.40;;;23.60;53.70;;;;;;216664;1290;24122;-54
2022/05/27 20:09:08;;;;;;;10.30;2.80;;;23.70;54.20;;;;;;216751;1290;22574;-55
2022/05/27 20:14:19;;;;;;;14.50;2.90;;;23.70;53.80;;;;;;216460;1290;22632;-54
2022/05/27 20:19:39;;;;;;;11.60;2.20;;;23.70;54.30;;;;;;216720;1290;22588;-55
2022/05/27 20:24:50;;;;;;;10.00;2.10;;;23.60;54.80;;;;;;216680;1290;22561;-56
2022/05/27 20:30:09;;;;;;;7.60;2.50;;;23.60;55.10;;;;;;216945;1290;22626;-59
2022/05/27 20:35:20;;;;;;;10.10;2.00;;;23.70;55.50;;;;;;216784;1290;22690;-54
2022/05/27 20:40:41;;;;;;;9.10;2.00;;;23.60;55.60;;;;;;216850;1290;24555;-55
2022/05/27 20:45:47;;;;;;;11.20;2.50;;;23.60;55.60;;;;;;216443;1290;22661;-53
2022/05/27 20:50:52;;;;;;;7.70;2.20;;;23.70;55.90;;;;;;216177;1290;22735;-55
2022/05/27 20:55:57;;;;;;;7.80;2.10;;;23.60;55.70;;;;;;216174;1290;22882;-56
2022/05/27 21:01:02;;;;;;;7.60;1.90;;;23.60;55.70;;;;;;216543;1290;24271;-56
2022/05/27 21:06:14;;;;;;;7.50;2.30;;;23.60;55.70;;;;;;216529;1289;24436;-56
2022/05/27 21:11:30;;;;;;;4.40;1.70;;;23.60;56.00;;;;;;216479;1290;22602;-51
2022/05/27 21:16:41;;;;;;;7.70;1.90;;;23.60;55.80;;;;;;216501;1290;22570;-55
2022/05/27 21:21:51;;;;;;;3.70;1.60;;;23.60;56.10;;;;;;216168;1290;22588;-56
2022/05/27 21:26:57;;;;;;;7.20;2.00;;;23.60;55.90;;;;;;216781;1290;25351;-53
2022/05/27 21:32:09;;;;;;;;;;;23.50;56.00;;;;;;216470;1290;22695;-56
2022/05/27 21:37:13;;;;;;;10.70;2.00;;;23.60;58.80;;;;;;217019;1290;24296;-56
2022/05/27 21:42:26;;;;;;;12.90;2.80;;;23.60;62.30;;;;;;216956;1290;24328;-57
2022/05/27 21:47:32;;;;;;;7.30;2.10;;;23.60;62.50;;;;;;216472;1290;22722;-55
2022/05/27 21:53:00;;;;;;;10.00;2.30;;;23.60;62.80;;;;;;216476;1290;24313;-50
2022/05/27 21:58:07;;;;;;;8.70;2.20;;;23.60;61.70;;;;;;216509;1290;22595;-54
2022/05/27 22:03:16;;;;;;;9.80;1.90;;;23.60;61.60;;;;;;216752;1290;24455;-56
2022/05/27 22:08:23;;;;;;;6.90;2.10;;;23.60;61.70;;;;;;216960;1290;22604;-53
2022/05/27 22:13:30;;;;;;;7.10;2.10;;;23.60;61.70;;;;;;216599;1290;24397;-53
2022/05/27 22:18:39;;;;;;;6.70;1.90;;;23.50;61.70;;;;;;216315;1290;22596;-55
2022/05/27 22:23:43;;;;;;;8.20;2.50;;;23.50;61.60;;;;;;216471;1290;24267;-53
2022/05/27 22:28:53;;;;;;;8.00;2.10;;;23.50;61.80;;;;;;216493;1290;22566;-54
2022/05/27 22:34:01;;;;;;;5.80;1.60;;;23.50;61.70;;;;;;216723;1290;22593;-55
2022/05/27 22:39:24;;;;;;;8.20;1.90;;;23.50;61.80;;;;;;216606;1290;22687;-55
2022/05/27 22:44:36;;;;;;;6.00;1.80;;;23.50;61.90;;;;;;216858;1291;22834;-55
2022/05/27 22:49:45;;;;;;;5.10;2.00;;;23.50;61.80;;;;;;216810;1291;22643;-52
2022/05/27 22:54:49;;;;;;;5.30;1.80;;;23.40;61.80;;;;;;216214;1290;24323;-55
2022/05/27 23:00:03;;;;;;;6.60;2.10;;;23.40;61.70;;;;;;216701;1290;24339;-54
2022/05/27 23:05:17;;;;;;;5.90;1.70;;;23.40;61.60;;;;;;216658;1290;22694;-55
2022/05/27 23:10:27;;;;;;;7.30;2.10;;;23.40;61.50;;;;;;217089;1290;22585;-53
2022/05/27 23:20:57;;;;;;;4.80;1.90;;;23.50;61.40;;;;;;216808;1290;22595;-56
2022/05/27 23:26:06;;;;;;;9.00;2.20;;;23.40;61.20;;;;;;216912;1290;23015;-53
2022/05/27 23:31:13;;;;;;;3.40;1.50;;;23.40;60.90;;;;;;217151;1290;22643;-53
2022/05/27 23:36:17;;;;;;;7.30;1.90;;;23.40;60.60;;;;;;217035;1291;25622;-52
2022/05/27 23:41:22;;;;;;;6.20;1.90;;;23.40;60.60;;;;;;216758;1290;25513;-54
2022/05/27 23:46:26;;;;;;;6.40;2.00;;;23.40;60.60;;;;;;216896;1291;22660;-55
2022/05/27 23:51:30;;;;;;;3.80;1.80;;;23.40;60.70;;;;;;216685;1290;22679;-56
2022/05/27 23:56:39;;;;;;;4.90;2.00;;;23.40;60.60;;;;;;216954;1290;22557;-55
